Terminal Aerodrome Forecast
Issued by NWS Lake Charles, LA

Home | Current Version | Previous Version | Text Only | Print | Product List | Glossary On
Versions: 1 2 3 4 5 6 7 8 9 10 11 12 13 14 15 16 17 18 19 20 21 22 23 24 25 26 27 28 29
000
FTUS44 KLCH 220300 AAA
TAFARA
TAF AMD
KARA 220301Z 2203/2224 09004KT P6SM SCT015
      TEMPO 2203/2206 3SM BR OVC005
     FM220600 15007KT 3SM BR OVC005
      TEMPO 2210/2214 1/4SM FG VV001
     FM221500 20016G24KT P6SM OVC015=

USA.gov is the U.S. government's official web portal to all federal, state and local government web resources and services.